sensor_id;sensor_type;location;lat;lon;timestamp;pressure;altitude;pressure_sealevel;temperature;humidity
48077;BME280;33854;57.708;12.008;2023-03-23T00:02:28;97258.66;;;4.65;100.00
48077;BME280;33854;57.708;12.008;2023-03-23T00:04:54;97243.03;;;4.67;100.00
48077;BME280;33854;57.708;12.008;2023-03-23T00:07:22;97220.41;;;4.70;100.00
48077;BME280;33854;57.708;12.008;2023-03-23T00:09:53;97198.22;;;4.68;100.00
48077;BME280;33854;57.708;12.008;2023-03-23T00:12:27;97165.81;;;4.64;100.00
48077;BME280;33854;57.708;12.008;2023-03-23T00:15:00;97141.13;;;4.71;100.00
48077;BME280;33854;57.708;12.008;2023-03-23T00:17:28;97120.59;;;4.69;100.00
48077;BME280;33854;57.708;12.008;2023-03-23T00:19:53;97095.84;;;4.67;100.00
48077;BME280;33854;57.708;12.008;2023-03-23T00:22:19;97085.50;;;4.67;100.00
48077;BME280;33854;57.708;12.008;2023-03-23T00:24:45;97072.84;;;4.64;100.00
48077;BME280;33854;57.708;12.008;2023-03-23T00:27:11;97063.19;;;4.66;100.00
48077;BME280;33854;57.708;12.008;2023-03-23T00:29:40;97060.59;;;4.66;100.00
48077;BME280;33854;57.708;12.008;2023-03-23T00:32:06;97051.59;;;4.60;100.00
48077;BME280;33854;57.708;12.008;2023-03-23T00:34:32;97054.75;;;4.64;100.00
48077;BME280;33854;57.708;12.008;2023-03-23T00:36:59;97070.13;;;4.65;100.00
48077;BME280;33854;57.708;12.008;2023-03-23T00:39:26;97063.31;;;4.64;100.00
48077;BME280;33854;57.708;12.008;2023-03-23T00:41:53;97075.03;;;4.68;100.00
48077;BME280;33854;57.708;12.008;2023-03-23T00:44:19;97078.88;;;4.74;100.00
48077;BME280;33854;57.708;12.008;2023-03-23T00:46:49;97090.88;;;4.75;100.00
48077;BME280;33854;57.708;12.008;2023-03-23T00:49:19;97091.25;;;4.70;100.00
48077;BME280;33854;57.708;12.008;2023-03-23T00:51:45;97095.44;;;4.71;100.00
48077;BME280;33854;57.708;12.008;2023-03-23T00:54:11;97086.19;;;4.69;100.00
48077;BME280;33854;57.708;12.008;2023-03-23T00:56:37;97093.69;;;4.72;100.00
48077;BME280;33854;57.708;12.008;2023-03-23T00:59:04;97106.38;;;4.75;100.00
48077;BME280;33854;57.708;12.008;2023-03-23T01:01:30;97106.38;;;4.75;100.00
48077;BME280;33854;57.708;12.008;2023-03-23T01:03:55;97112.38;;;4.75;100.00
48077;BME280;33854;57.708;12.008;2023-03-23T01:06:27;97120.56;;;4.80;100.00
48077;BME280;33854;57.708;12.008;2023-03-23T01:08:52;97126.31;;;4.84;100.00
48077;BME280;33854;57.708;12.008;2023-03-23T01:11:19;97146.97;;;4.84;100.00
48077;BME280;33854;57.708;12.008;2023-03-23T01:13:45;97150.50;;;4.83;100.00
48077;BME280;33854;57.708;12.008;2023-03-23T01:16:11;97173.94;;;4.91;100.00
48077;BME280;33854;57.708;12.008;2023-03-23T01:18:38;97163.38;;;4.94;100.00
48077;BME280;33854;57.708;12.008;2023-03-23T01:21:09;97174.44;;;4.96;100.00
48077;BME280;33854;57.708;12.008;2023-03-23T01:23:36;97189.09;;;4.95;100.00
48077;BME280;33854;57.708;12.008;2023-03-23T01:26:06;97177.13;;;4.94;100.00
48077;BME280;33854;57.708;12.008;2023-03-23T01:28:33;97178.06;;;4.93;100.00
48077;BME280;33854;57.708;12.008;2023-03-23T01:31:04;97189.44;;;4.91;100.00
48077;BME280;33854;57.708;12.008;2023-03-23T01:33:31;97179.50;;;4.86;100.00
48077;BME280;33854;57.708;12.008;2023-03-23T01:35:57;97171.41;;;4.80;100.00
48077;BME280;33854;57.708;12.008;2023-03-23T01:38:23;97177.53;;;4.79;100.00
48077;BME280;33854;57.708;12.008;2023-03-23T01:40:48;97166.38;;;4.78;100.00
48077;BME280;33854;57.708;12.008;2023-03-23T01:43:15;97179.97;;;4.80;100.00
48077;BME280;33854;57.708;12.008;2023-03-23T01:45:41;97172.84;;;4.73;100.00
48077;BME280;33854;57.708;12.008;2023-03-23T01:50:53;97169.66;;;4.69;100.00
48077;BME280;33854;57.708;12.008;2023-03-23T01:53:19;97168.59;;;4.72;100.00
48077;BME280;33854;57.708;12.008;2023-03-23T01:55:46;97165.13;;;4.62;100.00
48077;BME280;33854;57.708;12.008;2023-03-23T01:58:17;97165.13;;;4.62;100.00
48077;BME280;33854;57.708;12.008;2023-03-23T02:00:45;97172.97;;;4.60;100.00
48077;BME280;33854;57.708;12.008;2023-03-23T02:03:11;97189.16;;;4.62;100.00
48077;BME280;33854;57.708;12.008;2023-03-23T02:05:42;97181.78;;;4.57;100.00
48077;BME280;33854;57.708;12.008;2023-03-23T02:08:08;97202.56;;;4.56;100.00
48077;BME280;33854;57.708;12.008;2023-03-23T02:10:35;97182.03;;;4.43;100.00
48077;BME280;33854;57.708;12.008;2023-03-23T02:13:02;97219.59;;;4.58;100.00
48077;BME280;33854;57.708;12.008;2023-03-23T02:15:35;97231.53;;;4.59;100.00
48077;BME280;33854;57.708;12.008;2023-03-23T02:21:19;97243.88;;;4.67;100.00
48077;BME280;33854;57.708;12.008;2023-03-23T02:27:01;97290.13;;;4.70;100.00
48077;BME280;33854;57.708;12.008;2023-03-23T02:37:22;97284.72;;;4.84;100.00
48077;BME280;33854;57.708;12.008;2023-03-23T02:39:52;97273.09;;;4.90;100.00
48077;BME280;33854;57.708;12.008;2023-03-23T02:42:26;97261.00;;;4.90;100.00
48077;BME280;33854;57.708;12.008;2023-03-23T02:44:54;97247.72;;;4.95;100.00
48077;BME280;33854;57.708;12.008;2023-03-23T02:47:25;97243.72;;;5.02;100.00
48077;BME280;33854;57.708;12.008;2023-03-23T02:49:54;97221.38;;;5.01;100.00
48077;BME280;33854;57.708;12.008;2023-03-23T02:52:31;97205.97;;;5.10;100.00
48077;BME280;33854;57.708;12.008;2023-03-23T02:54:59;97183.03;;;5.17;100.00
48077;BME280;33854;57.708;12.008;2023-03-23T02:57:26;97144.97;;;5.19;100.00
48077;BME280;33854;57.708;12.008;2023-03-23T02:59:52;97107.97;;;5.18;100.00
48077;BME280;33854;57.708;12.008;2023-03-23T03:02:29;97083.81;;;5.29;100.00
48077;BME280;33854;57.708;12.008;2023-03-23T03:16:03;96811.84;;;5.35;100.00
48077;BME280;33854;57.708;12.008;2023-03-23T03:18:32;96764.50;;;5.35;100.00
48077;BME280;33854;57.708;12.008;2023-03-23T03:21:07;96722.72;;;5.30;100.00
48077;BME280;33854;57.708;12.008;2023-03-23T03:23:36;96676.47;;;5.27;100.00
48077;BME280;33854;57.708;12.008;2023-03-23T03:26:04;96657.94;;;5.31;100.00
48077;BME280;33854;57.708;12.008;2023-03-23T03:28:32;96635.38;;;5.33;100.00
48077;BME280;33854;57.708;12.008;2023-03-23T03:31:01;96620.69;;;5.34;100.00
48077;BME280;33854;57.708;12.008;2023-03-23T03:33:28;96599.59;;;5.29;100.00
48077;BME280;33854;57.708;12.008;2023-03-23T03:35:58;96597.41;;;5.34;100.00
48077;BME280;33854;57.708;12.008;2023-03-23T03:38:25;96577.53;;;5.34;100.00
48077;BME280;33854;57.708;12.008;2023-03-23T03:40:54;96562.03;;;5.34;100.00
48077;BME280;33854;57.708;12.008;2023-03-23T03:43:19;96557.81;;;5.33;100.00
48077;BME280;33854;57.708;12.008;2023-03-23T03:45:45;96536.72;;;5.28;100.00
48077;BME280;33854;57.708;12.008;2023-03-23T03:48:11;96530.34;;;5.32;100.00
48077;BME280;33854;57.708;12.008;2023-03-23T03:50:36;96512.13;;;5.24;100.00
48077;BME280;33854;57.708;12.008;2023-03-23T03:53:02;96504.22;;;5.26;100.00
48077;BME280;33854;57.708;12.008;2023-03-23T03:55:28;96512.25;;;5.32;100.00
48077;BME280;33854;57.708;12.008;2023-03-23T03:57:54;96507.22;;;5.31;100.00
48077;BME280;33854;57.708;12.008;2023-03-23T04:00:20;96513.19;;;5.31;100.00
48077;BME280;33854;57.708;12.008;2023-03-23T04:02:48;96497.94;;;5.28;100.00
48077;BME280;33854;57.708;12.008;2023-03-23T04:05:16;96492.78;;;5.28;100.00
48077;BME280;33854;57.708;12.008;2023-03-23T04:07:42;96504.75;;;5.29;100.00
48077;BME280;33854;57.708;12.008;2023-03-23T04:10:10;96504.47;;;5.32;100.00
48077;BME280;33854;57.708;12.008;2023-03-23T04:12:37;96490.63;;;5.24;100.00
48077;BME280;33854;57.708;12.008;2023-03-23T04:15:03;96510.31;;;5.34;100.00
48077;BME280;33854;57.708;12.008;2023-03-23T04:17:29;96507.06;;;5.32;100.00
48077;BME280;33854;57.708;12.008;2023-03-23T04:19:55;96509.66;;;5.32;100.00
48077;BME280;33854;57.708;12.008;2023-03-23T04:22:26;96501.91;;;5.32;100.00
48077;BME280;33854;57.708;12.008;2023-03-23T04:24:56;96498.50;;;5.32;100.00
48077;BME280;33854;57.708;12.008;2023-03-23T04:27:25;96503.25;;;5.36;100.00
48077;BME280;33854;57.708;12.008;2023-03-23T04:29:53;96498.22;;;5.35;100.00
48077;BME280;33854;57.708;12.008;2023-03-23T04:32:18;96493.88;;;5.35;100.00
48077;BME280;33854;57.708;12.008;2023-03-23T04:34:44;96476.47;;;5.28;100.00
48077;BME280;33854;57.708;12.008;2023-03-23T04:37:09;96478.63;;;5.32;100.00
48077;BME280;33854;57.708;12.008;2023-03-23T04:39:35;96474.41;;;5.31;100.00
48077;BME280;33854;57.708;12.008;2023-03-23T04:42:01;96471.97;;;5.30;100.00
48077;BME280;33854;57.708;12.008;2023-03-23T04:44:27;96457.31;;;5.21;100.00
48077;BME280;33854;57.708;12.008;2023-03-23T04:46:53;96483.69;;;5.24;100.00
48077;BME280;33854;57.708;12.008;2023-03-23T04:49:19;96484.63;;;5.23;100.00
48077;BME280;33854;57.708;12.008;2023-03-23T04:51:47;96485.47;;;5.24;100.00
48077;BME280;33854;57.708;12.008;2023-03-23T04:54:14;96502.06;;;5.21;100.00
48077;BME280;33854;57.708;12.008;2023-03-23T04:56:39;96499.91;;;5.16;100.00
48077;BME280;33854;57.708;12.008;2023-03-23T04:59:06;96507.13;;;5.13;100.00
48077;BME280;33854;57.708;12.008;2023-03-23T05:01:32;96519.50;;;5.09;100.00
48077;BME280;33854;57.708;12.008;2023-03-23T05:03:59;96512.03;;;4.97;100.00
48077;BME280;33854;57.708;12.008;2023-03-23T05:06:25;96537.59;;;5.00;100.00
48077;BME280;33854;57.708;12.008;2023-03-23T05:08:51;96538.72;;;4.88;100.00
48077;BME280;33854;57.708;12.008;2023-03-23T05:11:16;96563.31;;;4.92;100.00
48077;BME280;33854;57.708;12.008;2023-03-23T05:13:42;96587.38;;;4.92;100.00
48077;BME280;33854;57.708;12.008;2023-03-23T05:16:09;96604.63;;;4.92;100.00
48077;BME280;33854;57.708;12.008;2023-03-23T05:18:35;96615.50;;;4.86;100.00
48077;BME280;33854;57.708;12.008;2023-03-23T05:21:01;96646.38;;;4.97;100.00
48077;BME280;33854;57.708;12.008;2023-03-23T05:23:27;96663.53;;;4.98;100.00
48077;BME280;33854;57.708;12.008;2023-03-23T05:25:57;96673.84;;;4.98;100.00
48077;BME280;33854;57.708;12.008;2023-03-23T05:28:28;96687.19;;;5.03;100.00
48077;BME280;33854;57.708;12.008;2023-03-23T05:30:56;96708.25;;;5.08;100.00
48077;BME280;33854;57.708;12.008;2023-03-23T05:33:21;96709.22;;;5.07;100.00
48077;BME280;33854;57.708;12.008;2023-03-23T05:35:47;96707.06;;;5.12;100.00
48077;BME280;33854;57.708;12.008;2023-03-23T05:38:13;96705.16;;;5.04;100.00
48077;BME280;33854;57.708;12.008;2023-03-23T05:40:40;96732.63;;;5.15;100.00
48077;BME280;33854;57.708;12.008;2023-03-23T05:43:07;96728.41;;;5.14;100.00
48077;BME280;33854;57.708;12.008;2023-03-23T05:45:32;96723.94;;;5.16;100.00
48077;BME280;33854;57.708;12.008;2023-03-23T05:47:58;96723.94;;;5.16;100.00
48077;BME280;33854;57.708;12.008;2023-03-23T05:50:23;96719.59;;;5.16;100.00
48077;BME280;33854;57.708;12.008;2023-03-23T05:52:48;96712.22;;;5.12;100.00
48077;BME280;33854;57.708;12.008;2023-03-23T05:55:15;96707.72;;;5.14;100.00
48077;BME280;33854;57.708;12.008;2023-03-23T05:57:41;96700.13;;;5.22;100.00
48077;BME280;33854;57.708;12.008;2023-03-23T06:00:07;96702.56;;;5.24;100.00
48077;BME280;33854;57.708;12.008;2023-03-23T06:02:40;96654.94;;;4.97;100.00
48077;BME280;33854;57.708;12.008;2023-03-23T06:05:09;96694.00;;;5.23;100.00
48077;BME280;33854;57.708;12.008;2023-03-23T06:07:35;96686.25;;;5.23;100.00
48077;BME280;33854;57.708;12.008;2023-03-23T06:10:01;96669.25;;;5.21;100.00
48077;BME280;33854;57.708;12.008;2023-03-23T06:12:27;96648.97;;;5.26;100.00
48077;BME280;33854;57.708;12.008;2023-03-23T06:14:52;96637.69;;;5.27;100.00
48077;BME280;33854;57.708;12.008;2023-03-23T06:17:18;96611.03;;;5.36;100.00
48077;BME280;33854;57.708;12.008;2023-03-23T06:19:44;96577.25;;;5.37;100.00
48077;BME280;33854;57.708;12.008;2023-03-23T06:22:14;96546.66;;;5.42;100.00
48077;BME280;33854;57.708;12.008;2023-03-23T06:24:39;96506.91;;;5.43;100.00
48077;BME280;33854;57.708;12.008;2023-03-23T06:27:04;96480.34;;;5.51;100.00
48077;BME280;33854;57.708;12.008;2023-03-23T06:29:30;96449.00;;;5.54;100.00
48077;BME280;33854;57.708;12.008;2023-03-23T06:31:59;96402.91;;;5.49;100.00
48077;BME280;33854;57.708;12.008;2023-03-23T06:34:25;96343.53;;;5.57;100.00
48077;BME280;33854;57.708;12.008;2023-03-23T06:36:51;96312.19;;;5.60;100.00
48077;BME280;33854;57.708;12.008;2023-03-23T06:39:17;96279.41;;;5.61;100.00
48077;BME280;33854;57.708;12.008;2023-03-23T06:41:43;96261.94;;;5.63;100.00
48077;BME280;33854;57.708;12.008;2023-03-23T06:44:08;96224.13;;;5.62;100.00
48077;BME280;33854;57.708;12.008;2023-03-23T06:46:38;96192.88;;;5.55;100.00
48077;BME280;33854;57.708;12.008;2023-03-23T06:49:05;96166.56;;;5.60;100.00
48077;BME280;33854;57.708;12.008;2023-03-23T06:51:31;96165.31;;;5.64;100.00
48077;BME280;33854;57.708;12.008;2023-03-23T06:53:56;96148.25;;;5.71;100.00
48077;BME280;33854;57.708;12.008;2023-03-23T06:56:23;96131.09;;;5.70;100.00
48077;BME280;33854;57.708;12.008;2023-03-23T06:58:48;96115.72;;;5.68;100.00
48077;BME280;33854;57.708;12.008;2023-03-23T07:01:14;96090.84;;;5.67;100.00
48077;BME280;33854;57.708;12.008;2023-03-23T07:03:40;96051.63;;;5.54;100.00
48077;BME280;33854;57.708;12.008;2023-03-23T07:06:07;96061.66;;;5.57;100.00
48077;BME280;33854;57.708;12.008;2023-03-23T07:08:33;96074.50;;;5.67;100.00
48077;BME280;33854;57.708;12.008;2023-03-23T07:10:58;96085.34;;;5.70;100.00
48077;BME280;33854;57.708;12.008;2023-03-23T07:13:24;96091.19;;;5.72;100.00
48077;BME280;33854;57.708;12.008;2023-03-23T07:15:50;96100.72;;;5.72;100.00
48077;BME280;33854;57.708;12.008;2023-03-23T07:18:15;96104.59;;;5.68;100.00
48077;BME280;33854;57.708;12.008;2023-03-23T07:20:41;96129.03;;;5.73;100.00
48077;BME280;33854;57.708;12.008;2023-03-23T07:23:07;96157.16;;;5.77;100.00
48077;BME280;33854;57.708;12.008;2023-03-23T07:25:33;96184.81;;;5.76;100.00
48077;BME280;33854;57.708;12.008;2023-03-23T07:28:00;96195.97;;;5.77;100.00
48077;BME280;33854;57.708;12.008;2023-03-23T07:30:26;96238.75;;;5.89;100.00
48077;BME280;33854;57.708;12.008;2023-03-23T07:32:52;96267.44;;;5.95;100.00
48077;BME280;33854;57.708;12.008;2023-03-23T07:35:18;96272.47;;;5.97;100.00
48077;BME280;33854;57.708;12.008;2023-03-23T07:37:44;96280.59;;;6.02;100.00
48077;BME280;33854;57.708;12.008;2023-03-23T07:40:11;96300.31;;;6.03;100.00
48077;BME280;33854;57.708;12.008;2023-03-23T07:42:45;96308.81;;;6.13;100.00
48077;BME280;33854;57.708;12.008;2023-03-23T07:45:12;96314.06;;;6.21;100.00
48077;BME280;33854;57.708;12.008;2023-03-23T07:47:38;96323.22;;;6.33;100.00
48077;BME280;33854;57.708;12.008;2023-03-23T07:50:04;96311.72;;;6.36;100.00
48077;BME280;33854;57.708;12.008;2023-03-23T07:52:30;96314.25;;;6.45;100.00
48077;BME280;33854;57.708;12.008;2023-03-23T07:54:56;96319.59;;;6.52;100.00
48077;BME280;33854;57.708;12.008;2023-03-23T07:57:21;96303.84;;;6.63;100.00
48077;BME280;33854;57.708;12.008;2023-03-23T07:59:47;96289.78;;;6.73;100.00
48077;BME280;33854;57.708;12.008;2023-03-23T08:02:13;96257.81;;;6.91;100.00
48077;BME280;33854;57.708;12.008;2023-03-23T08:04:39;96219.59;;;7.01;100.00
48077;BME280;33854;57.708;12.008;2023-03-23T08:07:04;96183.69;;;7.14;100.00
48077;BME280;33854;57.708;12.008;2023-03-23T08:09:30;96115.97;;;7.17;100.00
48077;BME280;33854;57.708;12.008;2023-03-23T08:11:56;96057.00;;;7.11;100.00
48077;BME280;33854;57.708;12.008;2023-03-23T08:14:21;95979.38;;;7.25;100.00
48077;BME280;33854;57.708;12.008;2023-03-23T08:16:48;95922.94;;;7.35;100.00
48077;BME280;33854;57.708;12.008;2023-03-23T08:19:13;95862.91;;;7.46;100.00
48077;BME280;33854;57.708;12.008;2023-03-23T08:21:39;95811.19;;;7.53;100.00
48077;BME280;33854;57.708;12.008;2023-03-23T08:24:04;95750.72;;;7.53;100.00
48077;BME280;33854;57.708;12.008;2023-03-23T08:26:30;95693.50;;;7.54;100.00
48077;BME280;33854;57.708;12.008;2023-03-23T08:28:56;95686.56;;;7.69;100.00
48077;BME280;33854;57.708;12.008;2023-03-23T08:31:22;95661.41;;;7.70;100.00
48077;BME280;33854;57.708;12.008;2023-03-23T08:33:48;95647.72;;;7.61;100.00
48077;BME280;33854;57.708;12.008;2023-03-23T08:36:14;95662.38;;;7.54;100.00
48077;BME280;33854;57.708;12.008;2023-03-23T08:38:40;95662.94;;;7.41;100.00
48077;BME280;33854;57.708;12.008;2023-03-23T08:41:06;95674.13;;;7.42;100.00
48077;BME280;33854;57.708;12.008;2023-03-23T08:43:33;95714.53;;;7.36;100.00
48077;BME280;33854;57.708;12.008;2023-03-23T08:45:59;95754.09;;;7.30;100.00
48077;BME280;33854;57.708;12.008;2023-03-23T08:48:25;95804.22;;;7.23;100.00
48077;BME280;33854;57.708;12.008;2023-03-23T08:50:52;95855.59;;;7.19;100.00
48077;BME280;33854;57.708;12.008;2023-03-23T08:53:18;95892.06;;;7.10;100.00
48077;BME280;33854;57.708;12.008;2023-03-23T08:55:46;95930.00;;;7.03;100.00
48077;BME280;33854;57.708;12.008;2023-03-23T08:58:11;95981.00;;;7.10;100.00
48077;BME280;33854;57.708;12.008;2023-03-23T09:00:37;96047.25;;;7.21;100.00
48077;BME280;33854;57.708;12.008;2023-03-23T09:03:02;96085.66;;;7.33;100.00
48077;BME280;33854;57.708;12.008;2023-03-23T09:05:29;96083.56;;;7.45;100.00
48077;BME280;33854;57.708;12.008;2023-03-23T09:07:57;96071.00;;;7.73;100.00
48077;BME280;33854;57.708;12.008;2023-03-23T09:10:27;96016.31;;;7.90;100.00
48077;BME280;33854;57.708;12.008;2023-03-23T09:12:55;95949.88;;;8.04;100.00
48077;BME280;33854;57.708;12.008;2023-03-23T09:15:22;95869.59;;;8.02;100.00
48077;BME280;33854;57.708;12.008;2023-03-23T09:17:49;95751.66;;;8.20;100.00
48077;BME280;33854;57.708;12.008;2023-03-23T09:20:18;95686.34;;;8.31;100.00
48077;BME280;33854;57.708;12.008;2023-03-23T09:22:47;95624.69;;;8.25;100.00
48077;BME280;33854;57.708;12.008;2023-03-23T09:25:15;95592.94;;;8.37;100.00
48077;BME280;33854;57.708;12.008;2023-03-23T09:27:44;95559.78;;;8.54;100.00
48077;BME280;33854;57.708;12.008;2023-03-23T09:30:13;95549.91;;;8.49;100.00
48077;BME280;33854;57.708;12.008;2023-03-23T09:32:39;95575.09;;;8.49;100.00
48077;BME280;33854;57.708;12.008;2023-03-23T09:35:07;95524.63;;;8.37;100.00
48077;BME280;33854;57.708;12.008;2023-03-23T09:37:39;95541.41;;;8.41;100.00
48077;BME280;33854;57.708;12.008;2023-03-23T09:40:07;95532.22;;;8.38;100.00
48077;BME280;33854;57.708;12.008;2023-03-23T09:53:47;95503.84;;;8.22;100.00
48077;BME280;33854;57.708;12.008;2023-03-23T09:56:15;95516.59;;;8.02;100.00
48077;BME280;33854;57.708;12.008;2023-03-23T10:01:37;95510.34;;;7.82;100.00
48077;BME280;33854;57.708;12.008;2023-03-23T10:04:23;95519.72;;;7.69;100.00
48077;BME280;33854;57.708;12.008;2023-03-23T10:06:50;95529.81;;;7.64;100.00
48077;BME280;33854;57.708;12.008;2023-03-23T10:09:17;95553.09;;;7.57;100.00
48077;BME280;33854;57.708;12.008;2023-03-23T10:14:41;95607.09;;;7.54;100.00
48077;BME280;33854;57.708;12.008;2023-03-23T10:22:40;95737.34;;;7.41;100.00
48077;BME280;33854;57.708;12.008;2023-03-23T10:30:29;95867.72;;;7.58;100.00
48077;BME280;33854;57.708;12.008;2023-03-23T10:33:12;95904.84;;;7.58;100.00
48077;BME280;33854;57.708;12.008;2023-03-23T10:38:37;95943.25;;;7.71;100.00
48077;BME280;33854;57.708;12.008;2023-03-23T10:41:17;95947.94;;;7.67;100.00
48077;BME280;33854;57.708;12.008;2023-03-23T10:43:44;95975.53;;;7.68;100.00
48077;BME280;33854;57.708;12.008;2023-03-23T10:47:02;95986.72;;;7.69;100.00
48077;BME280;33854;57.708;12.008;2023-03-23T10:49:23;95993.84;;;7.67;100.00
48077;BME280;33854;57.708;12.008;2023-03-23T10:54:38;95997.91;;;7.61;100.00
48077;BME280;33854;57.708;12.008;2023-03-23T10:57:26;95986.25;;;7.57;100.00
48077;BME280;33854;57.708;12.008;2023-03-23T10:59:58;95969.56;;;7.60;100.00
48077;BME280;33854;57.708;12.008;2023-03-23T11:02:24;95947.34;;;7.57;100.00
48077;BME280;33854;57.708;12.008;2023-03-23T11:04:59;95947.03;;;7.60;100.00
48077;BME280;33854;57.708;12.008;2023-03-23T11:07:28;95922.53;;;7.63;100.00
48077;BME280;33854;57.708;12.008;2023-03-23T11:09:57;95909.31;;;7.72;100.00
48077;BME280;33854;57.708;12.008;2023-03-23T11:12:24;95865.53;;;7.77;100.00
48077;BME280;33854;57.708;12.008;2023-03-23T11:14:50;95837.69;;;7.71;100.00
48077;BME280;33854;57.708;12.008;2023-03-23T11:17:24;95786.69;;;7.78;100.00
48077;BME280;33854;57.708;12.008;2023-03-23T11:19:51;95734.66;;;7.80;100.00
48077;BME280;33854;57.708;12.008;2023-03-23T11:22:32;95689.72;;;7.79;100.00
48077;BME280;33854;57.708;12.008;2023-03-23T11:25:04;95646.38;;;7.65;100.00
48077;BME280;33854;57.708;12.008;2023-03-23T11:27:30;95634.59;;;7.63;100.00
48077;BME280;33854;57.708;12.008;2023-03-23T11:29:59;95635.00;;;7.52;100.00
48077;BME280;33854;57.708;12.008;2023-03-23T11:32:28;95639.09;;;7.46;100.00
48077;BME280;33854;57.708;12.008;2023-03-23T11:34:59;95662.59;;;7.44;100.00
48077;BME280;33854;57.708;12.008;2023-03-23T11:37:41;95688.53;;;7.44;100.00
48077;BME280;33854;57.708;12.008;2023-03-23T11:42:38;95780.66;;;7.32;100.00
48077;BME280;33854;57.708;12.008;2023-03-23T11:51:01;95935.44;;;7.24;100.00
48077;BME280;33854;57.708;12.008;2023-03-23T11:58:24;96101.38;;;7.16;100.00
48077;BME280;33854;57.708;12.008;2023-03-23T12:06:23;96240.03;;;7.04;100.00
48077;BME280;33854;57.708;12.008;2023-03-23T12:09:08;96285.53;;;6.98;100.00
48077;BME280;33854;57.708;12.008;2023-03-23T12:28:07;96589.81;;;6.87;100.00
48077;BME280;33854;57.708;12.008;2023-03-23T12:30:52;96644.91;;;6.89;100.00
48077;BME280;33854;57.708;12.008;2023-03-23T12:33:42;96678.88;;;6.86;100.00
48077;BME280;33854;57.708;12.008;2023-03-23T12:47:40;96787.72;;;6.59;100.00
48077;BME280;33854;57.708;12.008;2023-03-23T12:55:24;96899.38;;;6.56;100.00
48077;BME280;33854;57.708;12.008;2023-03-23T12:58:06;96927.59;;;6.50;100.00
48077;BME280;33854;57.708;12.008;2023-03-23T13:00:56;96970.53;;;6.52;100.00
48077;BME280;33854;57.708;12.008;2023-03-23T13:11:20;97179.78;;;6.49;100.00
48077;BME280;33854;57.708;12.008;2023-03-23T13:13:54;97249.34;;;6.53;100.00
48077;BME280;33854;57.708;12.008;2023-03-23T13:16:57;97305.13;;;6.57;100.00
48077;BME280;33854;57.708;12.008;2023-03-23T13:20:00;97361.50;;;6.65;100.00
48077;BME280;33854;57.708;12.008;2023-03-23T13:22:56;97428.22;;;6.72;100.00
48077;BME280;33854;57.708;12.008;2023-03-23T13:28:24;97568.25;;;6.82;100.00
48077;BME280;33854;57.708;12.008;2023-03-23T13:31:13;97607.81;;;6.84;100.00
48077;BME280;33854;57.708;12.008;2023-03-23T13:33:46;97636.09;;;6.87;100.00
48077;BME280;33854;57.708;12.008;2023-03-23T13:36:15;97674.34;;;6.95;100.00
48077;BME280;33854;57.708;12.008;2023-03-23T13:38:48;97708.66;;;6.98;100.00
48077;BME280;33854;57.708;12.008;2023-03-23T13:41:16;97740.22;;;7.03;100.00
48077;BME280;33854;57.708;12.008;2023-03-23T13:43:43;97742.56;;;7.06;100.00
48077;BME280;33854;57.708;12.008;2023-03-23T13:56:51;97723.00;;;7.13;100.00
48077;BME280;33854;57.708;12.008;2023-03-23T13:59:31;97701.56;;;7.11;100.00
48077;BME280;33854;57.708;12.008;2023-03-23T14:04:53;97632.09;;;7.15;100.00
48077;BME280;33854;57.708;12.008;2023-03-23T14:07:20;97609.91;;;7.22;100.00
48077;BME280;33854;57.708;12.008;2023-03-23T14:09:45;97574.53;;;7.21;100.00
48077;BME280;33854;57.708;12.008;2023-03-23T14:12:26;97522.94;;;7.18;100.00
48077;BME280;33854;57.708;12.008;2023-03-23T14:14:59;97481.25;;;7.30;100.00
48077;BME280;33854;57.708;12.008;2023-03-23T14:17:32;97425.75;;;7.52;100.00
48077;BME280;33854;57.708;12.008;2023-03-23T14:20:00;97393.75;;;7.82;100.00
48077;BME280;33854;57.708;12.008;2023-03-23T14:22:37;97289.09;;;8.00;100.00
48077;BME280;33854;57.708;12.008;2023-03-23T14:25:13;97049.31;;;8.10;100.00
48077;BME280;33854;57.708;12.008;2023-03-23T14:27:39;96830.66;;;8.41;100.00
48077;BME280;33854;57.708;12.008;2023-03-23T14:30:12;96603.25;;;8.55;100.00
48077;BME280;33854;57.708;12.008;2023-03-23T14:32:38;96253.13;;;8.49;100.00
48077;BME280;33854;57.708;12.008;2023-03-23T14:35:19;96139.06;;;8.62;100.00
48077;BME280;33854;57.708;12.008;2023-03-23T14:37:44;96060.84;;;8.57;100.00
48077;BME280;33854;57.708;12.008;2023-03-23T14:40:17;96046.47;;;8.69;100.00
48077;BME280;33854;57.708;12.008;2023-03-23T14:42:43;96031.16;;;8.74;100.00
48077;BME280;33854;57.708;12.008;2023-03-23T14:45:16;96060.72;;;8.73;100.00
48077;BME280;33854;57.708;12.008;2023-03-23T14:47:51;96072.75;;;8.74;100.00
48077;BME280;33854;57.708;12.008;2023-03-23T14:53:37;96002.50;;;10.30;100.00
48077;BME280;33854;57.708;12.008;2023-03-23T14:56:11;96384.44;;;9.55;100.00
48077;BME280;33854;57.708;12.008;2023-03-23T14:58:37;96349.59;;;9.56;100.00
48077;BME280;33854;57.708;12.008;2023-03-23T15:03:35;96226.06;;;11.14;100.00
48077;BME280;33854;57.708;12.008;2023-03-23T15:06:12;96543.84;;;10.51;100.00
48077;BME280;33854;57.708;12.008;2023-03-23T15:08:39;96394.97;;;11.20;100.00
48077;BME280;33854;57.708;12.008;2023-03-23T15:13:46;96667.16;;;12.70;100.00
48077;BME280;33854;57.708;12.008;2023-03-23T15:16:18;96820.66;;;14.50;100.00
48077;BME280;33854;57.708;12.008;2023-03-23T15:18:57;97041.28;;;15.33;100.00
48077;BME280;33854;57.708;12.008;2023-03-23T15:21:27;97197.31;;;15.18;100.00
48077;BME280;33854;57.708;12.008;2023-03-23T15:23:53;97206.25;;;15.38;100.00
48077;BME280;33854;57.708;12.008;2023-03-23T15:26:42;97182.66;;;16.08;100.00